createdAt,value
2023-05-21T00:02:05.562Z,6.40
2023-05-21T00:04:33.747Z,2.20
2023-05-21T00:07:00.922Z,1.30
2023-05-21T00:09:34.475Z,1.45
2023-05-21T00:12:01.477Z,2.50
2023-05-21T00:14:28.211Z,3.00
2023-05-21T00:16:54.958Z,2.03
2023-05-21T00:19:21.797Z,2.13
2023-05-21T00:21:48.679Z,2.55
2023-05-21T00:24:15.669Z,1.90
2023-05-21T00:26:42.597Z,4.70
2023-05-21T00:29:09.445Z,3.42
2023-05-21T00:31:36.267Z,1.83
2023-05-21T00:34:06.055Z,3.80
2023-05-21T00:36:34.616Z,1.80
2023-05-21T00:39:02.439Z,2.83
2023-05-21T00:41:30.178Z,2.47
2023-05-21T00:44:00.331Z,2.85
2023-05-21T00:46:30.398Z,2.35
2023-05-21T00:48:58.334Z,2.67
2023-05-21T00:51:30.177Z,2.55
2023-05-21T00:53:57.981Z,3.97
2023-05-21T00:56:27.117Z,4.80
2023-05-21T00:58:58.347Z,3.35
2023-05-21T01:01:33.686Z,3.53
2023-05-21T01:04:01.756Z,2.40
2023-05-21T01:06:28.570Z,2.75
2023-05-21T01:08:57.174Z,2.85
2023-05-21T01:11:42.496Z,5.68
2023-05-21T01:14:13.126Z,2.47
2023-05-21T01:16:43.695Z,5.63
2023-05-21T01:19:19.088Z,3.33
2023-05-21T01:22:00.228Z,1.95
2023-05-21T01:24:27.126Z,1.95
2023-05-21T01:26:53.928Z,2.88
2023-05-21T01:29:20.826Z,2.45
2023-05-21T01:32:01.288Z,3.45
2023-05-21T01:34:42.100Z,4.45
2023-05-21T01:37:25.629Z,4.88
2023-05-21T01:40:03.894Z,3.92
2023-05-21T01:42:32.946Z,4.30
2023-05-21T01:45:06.084Z,4.15
2023-05-21T01:47:36.815Z,2.97
2023-05-21T01:50:06.395Z,3.22
2023-05-21T01:52:33.303Z,3.53
2023-05-21T01:55:00.353Z,3.10
2023-05-21T01:57:32.391Z,3.08
2023-05-21T01:59:59.503Z,2.53
2023-05-21T02:02:26.387Z,3.80
2023-05-21T02:04:53.223Z,3.03
2023-05-21T02:07:20.016Z,2.78
2023-05-21T02:09:46.884Z,2.60
2023-05-21T02:12:16.736Z,4.15
2023-05-21T02:14:43.506Z,3.38
2023-05-21T02:17:10.327Z,3.35
2023-05-21T02:19:37.193Z,3.72
2023-05-21T02:22:07.187Z,2.92
2023-05-21T02:24:33.974Z,2.42
2023-05-21T02:27:00.706Z,2.75
2023-05-21T02:29:27.468Z,3.63
2023-05-21T02:31:54.739Z,4.63
2023-05-21T02:34:21.597Z,2.50
2023-05-21T02:36:48.519Z,2.78
2023-05-21T02:39:22.021Z,3.05
2023-05-21T02:41:48.851Z,4.95
2023-05-21T02:44:15.828Z,5.97
2023-05-21T02:46:42.647Z,4.03
2023-05-21T02:49:09.430Z,3.40
2023-05-21T02:51:38.976Z,2.60
2023-05-21T02:54:11.471Z,2.22
2023-05-21T02:56:38.331Z,3.63
2023-05-21T02:59:08.168Z,4.15
2023-05-21T03:01:35.151Z,3.05
2023-05-21T03:04:04.040Z,2.90
2023-05-21T03:06:32.581Z,4.25
2023-05-21T03:09:02.030Z,2.85
2023-05-21T03:11:36.072Z,3.20
2023-05-21T03:14:02.920Z,7.40
2023-05-21T03:16:29.750Z,4.00
2023-05-21T03:18:56.556Z,2.67
2023-05-21T03:21:23.431Z,2.40
2023-05-21T03:23:51.330Z,3.83
2023-05-21T03:26:28.091Z,3.13
2023-05-21T03:28:56.358Z,3.67
2023-05-21T03:31:25.113Z,3.78
2023-05-21T03:33:52.666Z,4.68
2023-05-21T03:36:20.050Z,3.33
2023-05-21T03:38:46.894Z,5.13
2023-05-21T03:41:13.792Z,3.08
2023-05-21T03:43:40.637Z,4.57
2023-05-21T03:46:07.473Z,3.10
2023-05-21T03:48:36.793Z,3.05
2023-05-21T03:51:04.041Z,4.07
2023-05-21T03:53:30.849Z,3.22
2023-05-21T03:55:57.638Z,2.75
2023-05-21T03:58:24.766Z,3.35
2023-05-21T04:00:51.548Z,4.13
2023-05-21T04:03:18.594Z,3.40
2023-05-21T04:05:45.776Z,4.25
2023-05-21T04:08:12.546Z,7.45
2023-05-21T04:10:42.405Z,3.15
2023-05-21T04:13:12.055Z,2.25
2023-05-21T04:15:39.118Z,4.18
2023-05-21T04:18:07.278Z,2.75
2023-05-21T04:20:34.125Z,2.90
2023-05-21T04:23:03.571Z,4.65
2023-05-21T04:25:34.126Z,3.28
2023-05-21T04:28:01.042Z,3.58
2023-05-21T04:30:27.904Z,3.05
2023-05-21T04:32:55.268Z,3.17
2023-05-21T04:35:23.384Z,3.35
2023-05-21T04:37:50.473Z,3.25
2023-05-21T04:40:24.512Z,4.65
2023-05-21T04:42:51.585Z,2.80
2023-05-21T04:45:24.607Z,5.25
2023-05-21T04:47:54.611Z,2.78
2023-05-21T04:50:23.188Z,2.30
2023-05-21T04:52:54.755Z,6.25
2023-05-21T04:55:24.889Z,4.10
2023-05-21T04:57:52.711Z,3.70
2023-05-21T05:00:19.945Z,4.95
2023-05-21T05:02:46.812Z,3.38
2023-05-21T05:05:13.664Z,2.83
2023-05-21T05:07:40.808Z,3.60
2023-05-21T05:10:08.372Z,3.03
2023-05-21T05:12:35.197Z,5.30
2023-05-21T05:15:04.178Z,4.07
2023-05-21T05:17:30.967Z,2.78
2023-05-21T05:20:00.342Z,5.70
2023-05-21T05:22:27.227Z,3.90
2023-05-21T05:24:56.591Z,4.57
2023-05-21T05:27:23.428Z,3.92
2023-05-21T05:29:50.167Z,4.20
2023-05-21T05:32:24.688Z,4.30
2023-05-21T05:34:51.616Z,3.67
2023-05-21T05:37:18.440Z,6.13
2023-05-21T05:39:45.198Z,3.55
2023-05-21T05:42:11.944Z,5.25
2023-05-21T05:44:38.722Z,3.88
2023-05-21T05:47:10.618Z,3.88
2023-05-21T05:49:37.759Z,3.50
2023-05-21T05:52:05.085Z,5.10
2023-05-21T05:54:31.948Z,2.83
2023-05-21T05:56:58.773Z,4.25
2023-05-21T05:59:28.667Z,4.00
2023-05-21T06:01:56.505Z,3.17
2023-05-21T06:04:23.309Z,3.97
2023-05-21T06:06:50.025Z,4.93
2023-05-21T06:09:16.828Z,5.13
2023-05-21T06:11:43.772Z,4.57
2023-05-21T06:14:10.562Z,6.07
2023-05-21T06:16:40.474Z,5.43
2023-05-21T06:19:07.334Z,4.10
2023-05-21T06:21:34.292Z,5.40
2023-05-21T06:24:01.146Z,5.05
2023-05-21T06:26:27.944Z,5.72
2023-05-21T06:28:54.677Z,6.32
2023-05-21T06:31:22.448Z,4.35
2023-05-21T06:33:50.068Z,4.57
2023-05-21T06:36:16.993Z,5.25
2023-05-21T06:38:43.776Z,4.13
2023-05-21T06:41:10.922Z,6.25
2023-05-21T06:43:37.696Z,7.55
2023-05-21T06:46:04.564Z,6.72
2023-05-21T06:48:33.514Z,6.32
2023-05-21T06:51:00.320Z,5.68
2023-05-21T06:53:30.182Z,7.20
2023-05-21T06:55:57.368Z,5.03
2023-05-21T06:58:24.181Z,6.20
2023-05-21T07:00:51.015Z,4.32
2023-05-21T07:03:18.041Z,5.18
2023-05-21T07:05:44.939Z,6.40
2023-05-21T07:08:12.314Z,5.22
2023-05-21T07:10:39.266Z,5.40
2023-05-21T07:13:06.236Z,6.38
2023-05-21T07:15:33.095Z,5.80
2023-05-21T07:17:59.986Z,7.97
2023-05-21T07:20:26.912Z,6.53
2023-05-21T07:22:53.630Z,4.85
2023-05-21T07:25:20.641Z,5.38
2023-05-21T07:27:47.359Z,6.03
2023-05-21T07:30:14.979Z,5.95
2023-05-21T07:32:42.048Z,4.55
2023-05-21T07:35:09.354Z,6.72
2023-05-21T07:37:36.294Z,5.50
2023-05-21T07:40:04.100Z,6.13
2023-05-21T07:42:31.209Z,6.05
2023-05-21T07:44:58.007Z,4.90
2023-05-21T07:47:24.903Z,5.22
2023-05-21T07:49:51.814Z,4.18
2023-05-21T07:52:18.702Z,4.80
2023-05-21T07:54:45.624Z,5.00
2023-05-21T07:57:18.765Z,5.03
2023-05-21T07:59:45.605Z,4.72
2023-05-21T08:02:12.508Z,5.47
2023-05-21T08:04:41.131Z,6.13
2023-05-21T08:07:11.758Z,9.48
2023-05-21T08:09:38.586Z,6.85
2023-05-21T08:12:08.528Z,6.25
2023-05-21T08:14:35.390Z,5.13
2023-05-21T08:17:02.273Z,5.78
2023-05-21T08:19:29.094Z,3.75
2023-05-21T08:21:56.135Z,4.45
2023-05-21T08:24:24.314Z,4.80
2023-05-21T08:26:58.707Z,5.75
2023-05-21T08:29:25.850Z,5.10
2023-05-21T08:31:52.750Z,4.22
2023-05-21T08:34:19.659Z,5.10
2023-05-21T08:36:47.884Z,4.60
2023-05-21T08:39:15.103Z,6.35
2023-05-21T08:41:53.868Z,5.68
2023-05-21T08:44:25.680Z,5.45
2023-05-21T08:46:57.062Z,4.95
2023-05-21T08:49:30.767Z,4.60
2023-05-21T08:51:58.873Z,7.53
2023-05-21T08:54:25.939Z,6.47
2023-05-21T08:56:53.675Z,6.07
2023-05-21T08:59:22.997Z,5.63
2023-05-21T09:01:53.040Z,5.55
2023-05-21T09:04:21.900Z,5.85
2023-05-21T09:06:49.746Z,5.97
2023-05-21T09:09:34.128Z,5.05
2023-05-21T09:12:01.292Z,7.50
2023-05-21T09:14:29.266Z,6.20
2023-05-21T09:16:56.365Z,5.15
2023-05-21T09:19:23.575Z,4.57
2023-05-21T09:21:53.520Z,4.97
2023-05-21T09:24:24.999Z,9.15
2023-05-21T09:26:52.434Z,6.18
2023-05-21T09:29:21.696Z,6.55
2023-05-21T09:31:51.658Z,5.30
2023-05-21T09:34:18.478Z,14.55
2023-05-21T09:36:46.181Z,4.35
2023-05-21T09:39:28.072Z,4.72
2023-05-21T09:41:57.789Z,5.57
2023-05-21T09:44:24.680Z,6.35
2023-05-21T09:46:57.704Z,5.95
2023-05-21T09:49:26.603Z,4.55
2023-05-21T09:51:57.849Z,4.47
2023-05-21T09:54:30.769Z,5.70
2023-05-21T09:56:57.664Z,4.85
2023-05-21T09:59:35.244Z,4.97
2023-05-21T10:02:02.702Z,5.13
2023-05-21T10:04:31.584Z,5.68
2023-05-21T10:07:00.722Z,6.13
2023-05-21T10:09:30.252Z,9.75
2023-05-21T10:11:58.873Z,6.05
2023-05-21T10:14:29.827Z,3.88
2023-05-21T10:16:57.232Z,5.38
2023-05-21T10:19:27.848Z,4.53
2023-05-21T10:21:57.147Z,4.70
2023-05-21T10:24:25.276Z,6.03
2023-05-21T10:26:52.780Z,6.70
2023-05-21T10:29:21.167Z,4.68
2023-05-21T10:31:50.568Z,8.65
2023-05-21T10:34:23.266Z,6.30
2023-05-21T10:36:52.610Z,6.72
2023-05-21T10:39:22.153Z,5.43
2023-05-21T10:42:31.108Z,5.18
2023-05-21T10:45:34.877Z,5.05
2023-05-21T10:48:28.280Z,4.70
2023-05-21T10:51:16.065Z,6.78
2023-05-21T10:54:44.679Z,4.28
2023-05-21T10:57:48.256Z,4.60
2023-05-21T11:00:18.322Z,5.50
2023-05-21T11:02:48.873Z,8.05
2023-05-21T11:05:15.856Z,8.68
2023-05-21T11:07:58.621Z,6.07
2023-05-21T11:10:40.663Z,5.28
2023-05-21T11:13:16.295Z,6.60
2023-05-21T11:15:58.656Z,6.05
2023-05-21T11:18:45.399Z,4.75
2023-05-21T11:21:18.576Z,7.65
2023-05-21T11:23:55.348Z,6.72
2023-05-21T11:26:26.516Z,7.43
2023-05-21T11:29:06.427Z,10.13
2023-05-21T11:31:38.951Z,8.80
2023-05-21T11:34:28.460Z,6.43
2023-05-21T11:37:31.231Z,5.82
2023-05-21T11:40:16.832Z,5.40
2023-05-21T11:42:48.419Z,6.68
2023-05-21T11:45:32.803Z,7.88
2023-05-21T11:48:00.596Z,5.07
2023-05-21T11:50:30.516Z,8.73
2023-05-21T11:53:01.847Z,4.78
2023-05-21T11:55:28.736Z,6.40
2023-05-21T11:57:55.751Z,7.53
2023-05-21T12:00:23.226Z,6.97
2023-05-21T12:02:54.342Z,6.95
2023-05-21T12:05:21.862Z,5.60
2023-05-21T12:07:52.479Z,5.00
2023-05-21T12:10:23.896Z,4.88
2023-05-21T12:12:56.288Z,5.68
2023-05-21T12:15:27.040Z,4.22
2023-05-21T12:17:55.055Z,5.57
2023-05-21T12:20:22.911Z,5.38
2023-05-21T12:22:52.957Z,5.13
2023-05-21T12:25:21.561Z,6.85
2023-05-21T12:27:52.837Z,8.13
2023-05-21T12:30:21.273Z,4.38
2023-05-21T12:32:49.324Z,6.88
2023-05-21T12:35:26.527Z,8.57
2023-05-21T12:37:53.727Z,6.25
2023-05-21T12:40:36.168Z,6.65
2023-05-21T12:43:04.079Z,6.30
2023-05-21T12:45:37.139Z,5.03
2023-05-21T12:48:04.333Z,5.95
2023-05-21T12:50:33.000Z,5.03
2023-05-21T12:52:59.878Z,6.30
2023-05-21T12:55:26.772Z,9.38
2023-05-21T12:58:08.808Z,6.60
2023-05-21T13:00:37.006Z,5.47
2023-05-21T13:03:07.212Z,5.78
2023-05-21T13:05:34.625Z,4.90
2023-05-21T13:08:02.669Z,7.68
2023-05-21T13:10:29.522Z,5.32
2023-05-21T13:12:56.503Z,6.90
2023-05-21T13:15:23.383Z,5.70
2023-05-21T13:17:51.590Z,4.93
2023-05-21T13:20:21.427Z,5.18
2023-05-21T13:22:51.473Z,6.40
2023-05-21T13:25:24.686Z,8.32
2023-05-21T13:27:53.057Z,6.13
2023-05-21T13:30:21.695Z,7.75
2023-05-21T13:32:49.094Z,4.82
2023-05-21T13:35:17.121Z,6.80
2023-05-21T13:37:44.815Z,9.88
2023-05-21T13:40:15.436Z,7.25
2023-05-21T13:42:45.081Z,6.65
2023-05-21T13:45:20.771Z,5.53
2023-05-21T13:47:48.716Z,7.45
2023-05-21T13:50:16.572Z,6.20
2023-05-21T13:52:45.969Z,4.82
2023-05-21T13:55:15.831Z,5.43
2023-05-21T13:57:43.341Z,5.43
2023-05-21T14:00:14.028Z,6.35
2023-05-21T14:02:43.363Z,6.47
2023-05-21T14:05:11.508Z,6.80
2023-05-21T14:07:39.780Z,5.93
2023-05-21T14:10:07.450Z,7.43
2023-05-21T14:12:34.644Z,5.28
2023-05-21T14:15:01.487Z,5.03
2023-05-21T14:17:28.344Z,5.85
2023-05-21T14:19:55.879Z,7.00
2023-05-21T14:22:22.902Z,3.45
2023-05-21T14:24:49.932Z,4.70
2023-05-21T14:27:17.058Z,10.25
2023-05-21T14:29:44.960Z,6.40
2023-05-21T14:32:11.836Z,16.50
2023-05-21T14:34:40.318Z,7.07
2023-05-21T14:37:07.174Z,6.35
2023-05-21T14:39:35.742Z,7.80
2023-05-21T14:42:06.194Z,7.97
2023-05-21T14:44:32.952Z,4.97
2023-05-21T14:47:01.938Z,5.35
2023-05-21T14:49:28.798Z,4.90
2023-05-21T14:51:55.705Z,7.97
2023-05-21T14:54:22.542Z,8.25
2023-05-21T14:56:49.408Z,7.25
2023-05-21T14:59:16.200Z,7.68
2023-05-21T15:01:43.489Z,3.97
2023-05-21T15:04:10.750Z,4.57
2023-05-21T15:06:38.255Z,6.65
2023-05-21T15:09:06.205Z,4.20
2023-05-21T15:11:34.050Z,5.25
2023-05-21T15:14:00.884Z,4.82
2023-05-21T15:16:27.768Z,4.50
2023-05-21T15:18:56.867Z,5.43
2023-05-21T15:21:27.223Z,4.75
2023-05-21T15:23:54.970Z,4.63
2023-05-21T15:26:22.763Z,5.40
2023-05-21T15:28:49.593Z,5.55
2023-05-21T15:31:16.521Z,4.95
2023-05-21T15:33:43.423Z,4.70
2023-05-21T15:36:10.421Z,4.40
2023-05-21T15:38:40.108Z,5.28
2023-05-21T15:41:07.252Z,5.15
2023-05-21T15:43:43.485Z,7.80
2023-05-21T15:46:11.142Z,6.72
2023-05-21T15:48:38.274Z,6.55
2023-05-21T15:51:06.492Z,5.93
2023-05-21T15:53:33.365Z,14.50
2023-05-21T15:56:02.024Z,11.48
2023-05-21T15:58:31.076Z,6.68
2023-05-21T16:01:02.059Z,8.43
2023-05-21T16:03:29.012Z,6.40
2023-05-21T16:05:55.954Z,8.25
2023-05-21T16:08:23.000Z,8.57
2023-05-21T16:10:49.833Z,6.55
2023-05-21T16:13:16.652Z,6.53
2023-05-21T16:15:43.460Z,5.40
2023-05-21T16:18:18.411Z,4.60
2023-05-21T16:20:45.209Z,5.60
2023-05-21T16:23:12.819Z,4.53
2023-05-21T16:25:44.920Z,7.18
2023-05-21T16:28:12.298Z,9.43
2023-05-21T16:30:41.200Z,7.05
2023-05-21T16:33:22.576Z,7.57
2023-05-21T16:35:49.471Z,6.82
2023-05-21T16:38:16.358Z,6.45
2023-05-21T16:40:45.453Z,5.93
2023-05-21T16:43:12.288Z,6.18
2023-05-21T16:45:45.648Z,5.47
2023-05-21T16:48:13.527Z,8.50
2023-05-21T16:50:40.970Z,9.07
2023-05-21T16:53:09.703Z,8.15
2023-05-21T16:55:38.251Z,7.97
2023-05-21T16:58:06.440Z,6.30
2023-05-21T17:00:34.140Z,7.82
2023-05-21T17:03:01.072Z,6.82
2023-05-21T17:05:28.090Z,5.70
2023-05-21T17:08:03.098Z,8.70
2023-05-21T17:10:33.308Z,9.85
2023-05-21T17:13:09.778Z,9.20
2023-05-21T17:15:44.999Z,6.68
2023-05-21T17:18:12.027Z,8.20
2023-05-21T17:20:38.975Z,7.95
2023-05-21T17:23:05.887Z,9.55
2023-05-21T17:25:35.673Z,7.95
2023-05-21T17:28:02.679Z,8.55
2023-05-21T17:30:29.475Z,8.35
2023-05-21T17:32:56.467Z,7.18
2023-05-21T17:35:23.944Z,6.55
2023-05-21T17:37:53.161Z,8.30
2023-05-21T17:40:21.289Z,8.73
2023-05-21T17:42:48.513Z,6.57
2023-05-21T17:45:15.510Z,8.18
2023-05-21T17:47:42.396Z,7.65
2023-05-21T17:50:09.775Z,9.27
2023-05-21T17:52:36.615Z,6.93
2023-05-21T17:55:03.730Z,6.57
2023-05-21T17:57:31.871Z,6.38
2023-05-21T17:59:58.670Z,8.10
2023-05-21T18:02:27.349Z,8.23
2023-05-21T18:04:54.532Z,11.57
2023-05-21T18:07:22.548Z,9.13
2023-05-21T18:09:49.674Z,9.30
2023-05-21T18:12:16.780Z,7.35
2023-05-21T18:14:43.895Z,7.25
2023-05-21T18:17:10.846Z,8.38
2023-05-21T18:19:37.702Z,8.65
2023-05-21T18:22:05.861Z,7.88
2023-05-21T18:24:51.481Z,6.80
2023-05-21T18:27:18.364Z,7.78
2023-05-21T18:29:46.903Z,9.70
2023-05-21T18:32:17.000Z,8.57
2023-05-21T18:35:03.417Z,5.63
2023-05-21T18:37:34.384Z,7.35
2023-05-21T18:40:09.124Z,9.07
2023-05-21T18:42:35.890Z,8.40
2023-05-21T18:45:11.670Z,6.68
2023-05-21T18:47:40.194Z,9.93
2023-05-21T18:50:13.202Z,8.50
2023-05-21T18:52:40.044Z,8.88
2023-05-21T18:55:07.438Z,6.85
2023-05-21T18:57:34.867Z,8.13
2023-05-21T19:00:01.712Z,9.43
2023-05-21T19:02:29.719Z,10.35
2023-05-21T19:04:56.697Z,6.63
2023-05-21T19:07:23.538Z,7.45
2023-05-21T19:09:50.478Z,7.90
2023-05-21T19:12:17.300Z,9.95
2023-05-21T19:14:44.926Z,14.15
2023-05-21T19:17:13.576Z,11.02
2023-05-21T19:19:40.557Z,9.07
2023-05-21T19:22:08.158Z,12.93
2023-05-21T19:24:34.951Z,9.90
2023-05-21T19:27:02.163Z,9.80
2023-05-21T19:29:29.051Z,12.02
2023-05-21T19:31:58.281Z,14.93
2023-05-21T19:34:27.297Z,12.18
2023-05-21T19:36:54.267Z,14.15
2023-05-21T19:39:21.374Z,11.43
2023-05-21T19:41:48.229Z,11.98
2023-05-21T19:44:15.255Z,13.00
2023-05-21T19:46:42.079Z,11.07
2023-05-21T19:49:10.936Z,13.30
2023-05-21T19:51:37.714Z,11.00
2023-05-21T19:54:04.493Z,12.30
2023-05-21T19:56:31.235Z,10.02
2023-05-21T19:58:58.010Z,9.45
2023-05-21T20:01:25.342Z,15.13
2023-05-21T20:03:52.303Z,11.43
2023-05-21T20:06:20.559Z,11.68
2023-05-21T20:08:47.761Z,12.73
2023-05-21T20:11:14.630Z,12.40
2023-05-21T20:13:42.151Z,13.95
2023-05-21T20:16:10.517Z,11.65
2023-05-21T20:18:37.466Z,11.52
2023-05-21T20:21:06.045Z,11.13
2023-05-21T20:23:32.875Z,10.45
2023-05-21T20:25:59.681Z,10.77
2023-05-21T20:28:26.462Z,10.27
2023-05-21T20:31:00.782Z,11.15
2023-05-21T20:33:30.766Z,10.98
2023-05-21T20:35:57.900Z,11.13
2023-05-21T20:38:26.306Z,9.68
2023-05-21T20:40:55.088Z,12.20
2023-05-21T20:43:24.307Z,16.42
2023-05-21T20:45:59.918Z,13.95
2023-05-21T20:48:31.910Z,11.23
2023-05-21T20:51:04.430Z,10.73
2023-05-21T20:53:31.346Z,11.05
2023-05-21T20:55:58.079Z,10.48
2023-05-21T20:58:25.422Z,9.82
2023-05-21T21:00:52.405Z,13.32
2023-05-21T21:03:21.464Z,11.38
2023-05-21T21:05:48.574Z,13.95
2023-05-21T21:08:16.159Z,11.55
2023-05-21T21:10:46.670Z,11.00
2023-05-21T21:13:14.817Z,9.80
2023-05-21T21:15:43.651Z,12.52
2023-05-21T21:18:12.363Z,9.52
2023-05-21T21:20:41.209Z,12.27
2023-05-21T21:23:10.788Z,8.40
2023-05-21T21:25:37.626Z,9.80
2023-05-21T21:28:04.566Z,17.73
2023-05-21T21:30:31.475Z,10.00
2023-05-21T21:32:58.462Z,12.43
2023-05-21T21:35:25.338Z,14.15
2023-05-21T21:37:52.118Z,11.70
2023-05-21T21:40:18.912Z,11.18
2023-05-21T21:42:46.706Z,8.90
2023-05-21T21:45:14.550Z,11.25
2023-05-21T21:47:41.442Z,11.57
2023-05-21T21:50:08.883Z,14.15
2023-05-21T21:52:40.178Z,13.45
2023-05-21T21:55:11.363Z,11.38
2023-05-21T21:57:39.619Z,14.88
2023-05-21T22:00:15.781Z,10.65
2023-05-21T22:02:44.177Z,11.77
2023-05-21T22:05:14.557Z,11.23
2023-05-21T22:07:47.046Z,15.15
2023-05-21T22:10:17.829Z,8.93
2023-05-21T22:12:46.144Z,11.35
2023-05-21T22:15:28.459Z,12.57
2023-05-21T22:17:56.075Z,13.05
2023-05-21T22:20:23.323Z,13.43
2023-05-21T22:22:54.087Z,10.98
2023-05-21T22:25:22.126Z,13.40
2023-05-21T22:27:49.139Z,14.40
2023-05-21T22:30:16.187Z,12.68
2023-05-21T22:32:43.159Z,13.10
2023-05-21T22:35:10.353Z,12.45
2023-05-21T22:37:37.436Z,10.32
2023-05-21T22:40:08.457Z,11.70
2023-05-21T22:42:36.456Z,13.38
2023-05-21T22:45:03.958Z,11.30
2023-05-21T22:47:32.169Z,14.07
2023-05-21T22:50:00.635Z,13.93
2023-05-21T22:52:28.786Z,7.55
2023-05-21T22:54:55.936Z,11.85
2023-05-21T22:57:22.693Z,11.13
2023-05-21T22:59:51.856Z,12.13
2023-05-21T23:02:18.839Z,14.45
2023-05-21T23:04:45.864Z,13.35
2023-05-21T23:07:12.706Z,14.30
2023-05-21T23:09:39.680Z,14.05
2023-05-21T23:12:07.383Z,11.27
2023-05-21T23:14:34.333Z,13.60
2023-05-21T23:17:04.521Z,16.23
2023-05-21T23:19:32.729Z,12.50
2023-05-21T23:22:00.277Z,11.65
2023-05-21T23:24:29.255Z,13.40
2023-05-21T23:27:01.613Z,14.10
2023-05-21T23:29:29.796Z,16.60
2023-05-21T23:31:56.753Z,16.33
2023-05-21T23:34:24.749Z,12.93
2023-05-21T23:36:51.945Z,12.65
2023-05-21T23:39:18.734Z,11.57
2023-05-21T23:41:45.717Z,12.13
2023-05-21T23:44:12.852Z,14.45
2023-05-21T23:46:39.599Z,13.45
2023-05-21T23:49:06.366Z,14.00
2023-05-21T23:51:33.244Z,9.93
2023-05-21T23:54:00.175Z,13.70
2023-05-21T23:56:26.944Z,14.25
2023-05-21T23:58:53.737Z,18.25
